sensor_id;sensor_type;location;lat;lon;timestamp;pressure;altitude;pressure_sealevel;temperature;humidity
23170;BME280;11753;43.144;24.714;2022-12-18T00:01:02;100523.72;;;9.00;89.92
23170;BME280;11753;43.144;24.714;2022-12-18T00:02:06;100517.75;;;8.98;90.45
23170;BME280;11753;43.144;24.714;2022-12-18T00:03:07;100525.50;;;8.99;91.06
23170;BME280;11753;43.144;24.714;2022-12-18T00:04:18;100515.59;;;9.03;91.55
23170;BME280;11753;43.144;24.714;2022-12-18T00:05:20;100513.59;;;8.84;90.11
23170;BME280;11753;43.144;24.714;2022-12-18T00:06:22;100521.47;;;8.95;89.93
23170;BME280;11753;43.144;24.714;2022-12-18T00:07:22;100522.19;;;8.86;90.25
23170;BME280;11753;43.144;24.714;2022-12-18T00:08:23;100514.28;;;8.97;89.46
23170;BME280;11753;43.144;24.714;2022-12-18T00:09:24;100518.72;;;8.97;89.85
23170;BME280;11753;43.144;24.714;2022-12-18T00:10:25;100516.34;;;8.94;90.35
23170;BME280;11753;43.144;24.714;2022-12-18T00:11:29;100513.94;;;8.91;90.65
23170;BME280;11753;43.144;24.714;2022-12-18T00:12:30;100519.53;;;8.97;90.25
23170;BME280;11753;43.144;24.714;2022-12-18T00:13:30;100528.88;;;8.90;90.37
23170;BME280;11753;43.144;24.714;2022-12-18T00:14:31;100523.13;;;8.85;89.16
23170;BME280;11753;43.144;24.714;2022-12-18T00:15:34;100519.31;;;8.78;89.38
23170;BME280;11753;43.144;24.714;2022-12-18T00:16:35;100519.44;;;8.76;89.67
23170;BME280;11753;43.144;24.714;2022-12-18T00:17:37;100536.41;;;8.72;89.16
23170;BME280;11753;43.144;24.714;2022-12-18T00:18:37;100524.19;;;8.71;89.14
23170;BME280;11753;43.144;24.714;2022-12-18T00:19:38;100532.56;;;8.76;88.88
23170;BME280;11753;43.144;24.714;2022-12-18T00:20:39;100523.72;;;8.77;89.04
23170;BME280;11753;43.144;24.714;2022-12-18T00:21:41;100526.47;;;8.76;89.31
23170;BME280;11753;43.144;24.714;2022-12-18T00:22:42;100527.78;;;8.81;89.63
23170;BME280;11753;43.144;24.714;2022-12-18T00:23:44;100525.88;;;8.83;89.49
23170;BME280;11753;43.144;24.714;2022-12-18T00:24:48;100528.28;;;8.87;89.45
23170;BME280;11753;43.144;24.714;2022-12-18T00:25:48;100535.66;;;8.93;88.96
23170;BME280;11753;43.144;24.714;2022-12-18T00:26:49;100531.13;;;8.95;88.54
23170;BME280;11753;43.144;24.714;2022-12-18T00:27:50;100531.97;;;8.95;88.32
23170;BME280;11753;43.144;24.714;2022-12-18T00:28:51;100528.25;;;8.98;88.20
23170;BME280;11753;43.144;24.714;2022-12-18T00:29:52;100532.53;;;8.99;88.18
23170;BME280;11753;43.144;24.714;2022-12-18T00:31:06;100539.94;;;9.05;88.24
23170;BME280;11753;43.144;24.714;2022-12-18T00:32:07;100537.19;;;9.06;87.80
23170;BME280;11753;43.144;24.714;2022-12-18T00:33:08;100543.88;;;9.10;87.17
23170;BME280;11753;43.144;24.714;2022-12-18T00:34:11;100542.09;;;9.11;87.25
23170;BME280;11753;43.144;24.714;2022-12-18T00:35:12;100541.25;;;9.10;87.32
23170;BME280;11753;43.144;24.714;2022-12-18T00:36:15;100548.53;;;9.18;87.28
23170;BME280;11753;43.144;24.714;2022-12-18T00:37:16;100551.28;;;9.17;87.31
23170;BME280;11753;43.144;24.714;2022-12-18T00:38:17;100553.53;;;9.21;87.25
23170;BME280;11753;43.144;24.714;2022-12-18T00:39:18;100552.59;;;9.11;87.27
23170;BME280;11753;43.144;24.714;2022-12-18T00:40:19;100559.31;;;9.15;87.43
23170;BME280;11753;43.144;24.714;2022-12-18T00:41:20;100554.63;;;9.19;87.37
23170;BME280;11753;43.144;24.714;2022-12-18T00:42:40;100551.88;;;9.20;86.92
23170;BME280;11753;43.144;24.714;2022-12-18T00:43:57;100559.16;;;9.05;86.27
23170;BME280;11753;43.144;24.714;2022-12-18T00:44:57;100567.66;;;9.09;85.45
23170;BME280;11753;43.144;24.714;2022-12-18T00:45:58;100558.34;;;9.05;84.50
23170;BME280;11753;43.144;24.714;2022-12-18T00:46:59;100561.31;;;8.78;84.90
23170;BME280;11753;43.144;24.714;2022-12-18T00:48:01;100563.59;;;8.82;84.81
23170;BME280;11753;43.144;24.714;2022-12-18T00:49:02;100560.25;;;8.80;84.98
23170;BME280;11753;43.144;24.714;2022-12-18T00:50:04;100552.13;;;8.83;84.57
23170;BME280;11753;43.144;24.714;2022-12-18T00:51:05;100556.91;;;8.78;85.01
23170;BME280;11753;43.144;24.714;2022-12-18T00:52:07;100558.34;;;8.82;85.18
23170;BME280;11753;43.144;24.714;2022-12-18T00:53:08;100565.50;;;8.80;85.33
23170;BME280;11753;43.144;24.714;2022-12-18T00:54:09;100560.47;;;8.77;84.93
23170;BME280;11753;43.144;24.714;2022-12-18T00:55:11;100551.53;;;8.91;84.50
23170;BME280;11753;43.144;24.714;2022-12-18T00:56:12;100567.41;;;8.78;85.07
23170;BME280;11753;43.144;24.714;2022-12-18T00:57:15;100564.78;;;8.67;85.58
23170;BME280;11753;43.144;24.714;2022-12-18T00:58:17;100561.44;;;8.65;86.54
23170;BME280;11753;43.144;24.714;2022-12-18T00:59:18;100565.50;;;8.69;86.28
23170;BME280;11753;43.144;24.714;2022-12-18T01:00:20;100558.81;;;8.76;86.42
23170;BME280;11753;43.144;24.714;2022-12-18T01:01:21;100559.44;;;8.80;86.25
23170;BME280;11753;43.144;24.714;2022-12-18T01:02:22;100556.44;;;8.85;85.91
23170;BME280;11753;43.144;24.714;2022-12-18T01:03:23;100569.81;;;8.81;85.99
23170;BME280;11753;43.144;24.714;2022-12-18T01:04:24;100563.34;;;8.86;85.39
23170;BME280;11753;43.144;24.714;2022-12-18T01:05:25;100557.88;;;8.89;85.35
23170;BME280;11753;43.144;24.714;2022-12-18T01:06:26;100566.47;;;8.91;85.20
23170;BME280;11753;43.144;24.714;2022-12-18T01:07:27;100572.19;;;8.85;85.66
23170;BME280;11753;43.144;24.714;2022-12-18T01:08:28;100563.34;;;8.86;85.93
23170;BME280;11753;43.144;24.714;2022-12-18T01:09:29;100562.41;;;8.87;86.12
23170;BME280;11753;43.144;24.714;2022-12-18T01:10:30;100574.22;;;8.81;86.32
23170;BME280;11753;43.144;24.714;2022-12-18T01:11:30;100557.63;;;8.80;86.65
23170;BME280;11753;43.144;24.714;2022-12-18T01:12:32;100573.41;;;8.80;86.59
23170;BME280;11753;43.144;24.714;2022-12-18T01:13:33;100569.94;;;8.80;86.60
23170;BME280;11753;43.144;24.714;2022-12-18T01:14:34;100563.59;;;8.82;86.82
23170;BME280;11753;43.144;24.714;2022-12-18T01:15:35;100564.22;;;8.86;86.60
23170;BME280;11753;43.144;24.714;2022-12-18T01:16:36;100567.16;;;8.93;86.45
23170;BME280;11753;43.144;24.714;2022-12-18T01:17:37;100569.09;;;8.91;86.71
23170;BME280;11753;43.144;24.714;2022-12-18T01:18:39;100570.53;;;8.95;86.50
23170;BME280;11753;43.144;24.714;2022-12-18T01:19:40;100573.38;;;8.92;86.74
23170;BME280;11753;43.144;24.714;2022-12-18T01:20:41;100565.41;;;8.93;86.77
23170;BME280;11753;43.144;24.714;2022-12-18T01:21:42;100573.03;;;8.96;86.69
23170;BME280;11753;43.144;24.714;2022-12-18T01:22:43;100576.22;;;9.00;86.50
23170;BME280;11753;43.144;24.714;2022-12-18T01:23:44;100572.44;;;9.04;86.54
23170;BME280;11753;43.144;24.714;2022-12-18T01:24:45;100574.09;;;9.05;86.50
23170;BME280;11753;43.144;24.714;2022-12-18T01:25:46;100573.03;;;9.07;86.34
23170;BME280;11753;43.144;24.714;2022-12-18T01:26:47;100572.06;;;8.97;86.03
23170;BME280;11753;43.144;24.714;2022-12-18T01:27:47;100574.34;;;8.91;85.72
23170;BME280;11753;43.144;24.714;2022-12-18T01:28:48;100577.19;;;8.76;85.54
23170;BME280;11753;43.144;24.714;2022-12-18T01:29:49;100575.28;;;8.67;85.05
23170;BME280;11753;43.144;24.714;2022-12-18T01:30:50;100577.81;;;8.34;86.46
23170;BME280;11753;43.144;24.714;2022-12-18T01:31:55;100583.50;;;8.27;87.52
23170;BME280;11753;43.144;24.714;2022-12-18T01:32:56;100579.22;;;8.26;87.77
23170;BME280;11753;43.144;24.714;2022-12-18T01:34:00;100579.69;;;8.20;87.83
23170;BME280;11753;43.144;24.714;2022-12-18T01:35:02;100587.09;;;8.26;87.44
23170;BME280;11753;43.144;24.714;2022-12-18T01:36:03;100584.47;;;8.15;87.50
23170;BME280;11753;43.144;24.714;2022-12-18T01:37:05;100583.03;;;8.22;86.98
23170;BME280;11753;43.144;24.714;2022-12-18T01:38:06;100579.22;;;8.15;87.71
23170;BME280;11753;43.144;24.714;2022-12-18T01:39:11;100580.88;;;8.16;87.28
23170;BME280;11753;43.144;24.714;2022-12-18T01:40:13;100580.81;;;8.05;87.54
23170;BME280;11753;43.144;24.714;2022-12-18T01:41:16;100580.13;;;8.14;87.49
23170;BME280;11753;43.144;24.714;2022-12-18T01:42:17;100583.97;;;8.21;86.72
23170;BME280;11753;43.144;24.714;2022-12-18T01:43:18;100583.69;;;8.02;86.95
23170;BME280;11753;43.144;24.714;2022-12-18T01:45:55;100590.81;;;7.76;88.67
23170;BME280;11753;43.144;24.714;2022-12-18T01:46:56;100585.03;;;7.84;88.25
23170;BME280;11753;43.144;24.714;2022-12-18T01:48:03;100594.00;;;7.92;88.51
23170;BME280;11753;43.144;24.714;2022-12-18T01:49:06;100594.81;;;7.93;88.54
23170;BME280;11753;43.144;24.714;2022-12-18T01:50:17;100588.38;;;7.86;88.61
23170;BME280;11753;43.144;24.714;2022-12-18T01:51:18;100587.69;;;7.71;89.00
23170;BME280;11753;43.144;24.714;2022-12-18T01:52:20;100585.53;;;7.65;88.89
23170;BME280;11753;43.144;24.714;2022-12-18T01:53:23;100587.41;;;7.63;89.07
23170;BME280;11753;43.144;24.714;2022-12-18T01:54:24;100584.47;;;7.67;89.21
23170;BME280;11753;43.144;24.714;2022-12-18T01:55:28;100590.50;;;7.81;89.32
23170;BME280;11753;43.144;24.714;2022-12-18T01:56:31;100589.56;;;7.82;89.12
23170;BME280;11753;43.144;24.714;2022-12-18T01:57:32;100590.91;;;7.87;89.16
23170;BME280;11753;43.144;24.714;2022-12-18T01:59:49;100586.41;;;7.77;88.70
23170;BME280;11753;43.144;24.714;2022-12-18T02:00:51;100587.63;;;7.72;89.45
23170;BME280;11753;43.144;24.714;2022-12-18T02:01:52;100593.84;;;7.83;88.99
23170;BME280;11753;43.144;24.714;2022-12-18T02:02:53;100591.72;;;7.88;89.38
23170;BME280;11753;43.144;24.714;2022-12-18T02:03:54;100607.84;;;7.94;89.51
23170;BME280;11753;43.144;24.714;2022-12-18T02:04:55;100606.78;;;7.97;89.74
23170;BME280;11753;43.144;24.714;2022-12-18T02:07:46;100592.50;;;7.53;89.89
23170;BME280;11753;43.144;24.714;2022-12-18T02:09:25;100603.34;;;7.36;90.97
23170;BME280;11753;43.144;24.714;2022-12-18T02:10:48;100599.56;;;7.40;91.64
23170;BME280;11753;43.144;24.714;2022-12-18T02:15:51;100619.69;;;7.63;89.97
23170;BME280;11753;43.144;24.714;2022-12-18T02:17:03;100617.88;;;7.53;90.66
23170;BME280;11753;43.144;24.714;2022-12-18T02:18:09;100616.91;;;7.54;90.70
23170;BME280;11753;43.144;24.714;2022-12-18T02:20:49;100624.09;;;7.39;90.94
23170;BME280;11753;43.144;24.714;2022-12-18T02:22:05;100622.72;;;7.46;90.91
23170;BME280;11753;43.144;24.714;2022-12-18T02:24:45;100632.25;;;7.47;90.81
23170;BME280;11753;43.144;24.714;2022-12-18T02:27:05;100633.69;;;7.51;90.57
23170;BME280;11753;43.144;24.714;2022-12-18T02:28:11;100639.81;;;7.39;90.82
23170;BME280;11753;43.144;24.714;2022-12-18T02:29:24;100649.75;;;7.34;91.53
23170;BME280;11753;43.144;24.714;2022-12-18T02:30:31;100655.47;;;7.15;92.49
23170;BME280;11753;43.144;24.714;2022-12-18T02:31:42;100650.63;;;6.96;92.88
23170;BME280;11753;43.144;24.714;2022-12-18T02:32:48;100643.50;;;6.98;92.64
23170;BME280;11753;43.144;24.714;2022-12-18T02:33:53;100646.66;;;7.03;93.34
23170;BME280;11753;43.144;24.714;2022-12-18T02:34:56;100644.56;;;7.08;93.18
23170;BME280;11753;43.144;24.714;2022-12-18T02:35:59;100641.84;;;6.97;93.43
23170;BME280;11753;43.144;24.714;2022-12-18T02:37:02;100653.03;;;6.99;94.51
23170;BME280;11753;43.144;24.714;2022-12-18T02:38:06;100654.63;;;7.02;93.87
23170;BME280;11753;43.144;24.714;2022-12-18T02:39:08;100646.44;;;7.06;94.05
23170;BME280;11753;43.144;24.714;2022-12-18T02:40:11;100651.78;;;7.05;94.51
23170;BME280;11753;43.144;24.714;2022-12-18T02:41:15;100655.88;;;7.09;93.17
23170;BME280;11753;43.144;24.714;2022-12-18T02:42:17;100651.06;;;7.03;92.95
23170;BME280;11753;43.144;24.714;2022-12-18T02:43:19;100658.19;;;6.88;93.73
23170;BME280;11753;43.144;24.714;2022-12-18T02:44:20;100657.78;;;6.94;94.16
23170;BME280;11753;43.144;24.714;2022-12-18T02:45:21;100662.91;;;7.08;93.99
23170;BME280;11753;43.144;24.714;2022-12-18T02:46:32;100661.72;;;7.00;94.45
23170;BME280;11753;43.144;24.714;2022-12-18T02:47:37;100662.59;;;7.00;93.82
23170;BME280;11753;43.144;24.714;2022-12-18T02:48:40;100661.75;;;6.87;93.65
23170;BME280;11753;43.144;24.714;2022-12-18T02:51:23;100661.00;;;6.85;94.12
23170;BME280;11753;43.144;24.714;2022-12-18T02:54:47;100674.53;;;6.79;95.90
23170;BME280;11753;43.144;24.714;2022-12-18T02:57:35;100674.50;;;6.66;95.53
23170;BME280;11753;43.144;24.714;2022-12-18T02:58:58;100668.75;;;6.74;95.41
23170;BME280;11753;43.144;24.714;2022-12-18T03:00:08;100686.25;;;6.86;95.32
23170;BME280;11753;43.144;24.714;2022-12-18T03:01:15;100685.31;;;6.87;94.74
23170;BME280;11753;43.144;24.714;2022-12-18T03:02:33;100680.56;;;6.92;94.24
23170;BME280;11753;43.144;24.714;2022-12-18T03:03:37;100691.91;;;6.80;94.99
23170;BME280;11753;43.144;24.714;2022-12-18T03:04:44;100682.69;;;6.87;94.73
23170;BME280;11753;43.144;24.714;2022-12-18T03:05:53;100681.44;;;6.80;95.21
23170;BME280;11753;43.144;24.714;2022-12-18T03:06:59;100686.44;;;6.83;96.05
23170;BME280;11753;43.144;24.714;2022-12-18T03:08:07;100687.69;;;6.90;96.07
23170;BME280;11753;43.144;24.714;2022-12-18T03:09:31;100685.41;;;6.98;95.56
23170;BME280;11753;43.144;24.714;2022-12-18T03:10:38;100679.66;;;6.93;95.25
23170;BME280;11753;43.144;24.714;2022-12-18T03:11:43;100685.22;;;7.01;94.84
23170;BME280;11753;43.144;24.714;2022-12-18T03:13:06;100684.69;;;6.96;95.14
23170;BME280;11753;43.144;24.714;2022-12-18T03:14:10;100695.69;;;7.01;95.15
23170;BME280;11753;43.144;24.714;2022-12-18T03:15:35;100685.63;;;7.08;95.56
23170;BME280;11753;43.144;24.714;2022-12-18T03:16:40;100694.81;;;7.13;94.77
23170;BME280;11753;43.144;24.714;2022-12-18T03:17:49;100696.31;;;7.17;94.71
23170;BME280;11753;43.144;24.714;2022-12-18T03:18:59;100700.28;;;7.23;94.67
23170;BME280;11753;43.144;24.714;2022-12-18T03:20:10;100699.22;;;7.13;94.23
23170;BME280;11753;43.144;24.714;2022-12-18T03:21:14;100698.50;;;7.11;94.25
23170;BME280;11753;43.144;24.714;2022-12-18T03:22:18;100692.97;;;7.15;94.37
23170;BME280;11753;43.144;24.714;2022-12-18T03:23:22;100692.97;;;7.15;94.13
23170;BME280;11753;43.144;24.714;2022-12-18T03:24:28;100703.03;;;7.22;93.03
23170;BME280;11753;43.144;24.714;2022-12-18T03:25:31;100703.94;;;7.21;92.63
23170;BME280;11753;43.144;24.714;2022-12-18T03:26:34;100701.72;;;7.27;93.07
23170;BME280;11753;43.144;24.714;2022-12-18T03:27:38;100704.03;;;7.32;92.33
23170;BME280;11753;43.144;24.714;2022-12-18T03:28:54;100710.34;;;7.29;92.29
23170;BME280;11753;43.144;24.714;2022-12-18T03:30:04;100703.22;;;7.31;92.28
23170;BME280;11753;43.144;24.714;2022-12-18T03:31:11;100713.03;;;7.40;91.59
23170;BME280;11753;43.144;24.714;2022-12-18T03:32:23;100718.41;;;7.39;91.98
23170;BME280;11753;43.144;24.714;2022-12-18T03:33:51;100722.28;;;7.33;91.73
23170;BME280;11753;43.144;24.714;2022-12-18T03:34:57;100714.09;;;7.25;92.17
23170;BME280;11753;43.144;24.714;2022-12-18T03:36:00;100727.69;;;6.92;92.01
23170;BME280;11753;43.144;24.714;2022-12-18T03:37:01;100718.06;;;6.80;93.45
23170;BME280;11753;43.144;24.714;2022-12-18T03:38:03;100731.84;;;6.69;94.07
23170;BME280;11753;43.144;24.714;2022-12-18T03:39:05;100729.34;;;6.68;94.33
23170;BME280;11753;43.144;24.714;2022-12-18T03:40:06;100732.25;;;6.50;95.11
23170;BME280;11753;43.144;24.714;2022-12-18T03:42:36;100737.25;;;6.53;95.03
23170;BME280;11753;43.144;24.714;2022-12-18T03:43:52;100744.31;;;6.66;94.87
23170;BME280;11753;43.144;24.714;2022-12-18T03:45:09;100749.72;;;6.62;95.07
23170;BME280;11753;43.144;24.714;2022-12-18T03:46:17;100743.97;;;6.57;94.80
23170;BME280;11753;43.144;24.714;2022-12-18T03:47:28;100741.25;;;6.59;95.35
23170;BME280;11753;43.144;24.714;2022-12-18T03:48:40;100741.47;;;6.69;95.34
23170;BME280;11753;43.144;24.714;2022-12-18T03:51:40;100748.53;;;6.81;93.72
23170;BME280;11753;43.144;24.714;2022-12-18T03:52:52;100749.44;;;6.40;94.00
23170;BME280;11753;43.144;24.714;2022-12-18T03:54:56;100750.00;;;6.45;93.75
23170;BME280;11753;43.144;24.714;2022-12-18T03:56:00;100751.47;;;6.49;93.60
23170;BME280;11753;43.144;24.714;2022-12-18T03:57:07;100751.41;;;6.51;93.86
23170;BME280;11753;43.144;24.714;2022-12-18T03:58:14;100750.13;;;6.56;92.64
23170;BME280;11753;43.144;24.714;2022-12-18T03:59:17;100756.97;;;6.59;93.25
23170;BME280;11753;43.144;24.714;2022-12-18T04:00:20;100753.75;;;6.41;94.02
23170;BME280;11753;43.144;24.714;2022-12-18T04:01:25;100758.59;;;6.47;93.52
23170;BME280;11753;43.144;24.714;2022-12-18T04:02:30;100756.31;;;6.55;92.81
23170;BME280;11753;43.144;24.714;2022-12-18T04:03:32;100757.13;;;6.43;93.28
23170;BME280;11753;43.144;24.714;2022-12-18T04:04:37;100760.66;;;6.42;93.42
23170;BME280;11753;43.144;24.714;2022-12-18T04:05:40;100749.16;;;6.45;93.89
23170;BME280;11753;43.144;24.714;2022-12-18T04:06:43;100754.84;;;6.51;94.01
23170;BME280;11753;43.144;24.714;2022-12-18T04:07:47;100752.31;;;6.50;93.90
23170;BME280;11753;43.144;24.714;2022-12-18T04:08:48;100761.78;;;6.11;93.31
23170;BME280;11753;43.144;24.714;2022-12-18T04:09:52;100772.19;;;6.25;93.42
23170;BME280;11753;43.144;24.714;2022-12-18T04:10:54;100768.53;;;6.28;94.26
23170;BME280;11753;43.144;24.714;2022-12-18T04:11:55;100768.38;;;6.31;92.75
23170;BME280;11753;43.144;24.714;2022-12-18T04:12:57;100772.09;;;6.27;93.02
23170;BME280;11753;43.144;24.714;2022-12-18T04:13:58;100774.81;;;6.25;92.62
23170;BME280;11753;43.144;24.714;2022-12-18T04:14:59;100770.63;;;6.23;92.67
23170;BME280;11753;43.144;24.714;2022-12-18T04:16:01;100770.69;;;6.21;93.03
23170;BME280;11753;43.144;24.714;2022-12-18T04:17:02;100773.16;;;6.24;93.30
23170;BME280;11753;43.144;24.714;2022-12-18T04:18:03;100777.78;;;6.33;93.15
23170;BME280;11753;43.144;24.714;2022-12-18T04:19:04;100782.66;;;6.25;92.95
23170;BME280;11753;43.144;24.714;2022-12-18T04:20:06;100766.41;;;6.20;93.35
23170;BME280;11753;43.144;24.714;2022-12-18T04:21:07;100777.69;;;6.35;93.58
23170;BME280;11753;43.144;24.714;2022-12-18T04:22:10;100783.28;;;6.43;93.68
23170;BME280;11753;43.144;24.714;2022-12-18T04:23:11;100777.44;;;6.52;93.81
23170;BME280;11753;43.144;24.714;2022-12-18T04:24:12;100775.16;;;6.60;93.65
23170;BME280;11753;43.144;24.714;2022-12-18T04:25:13;100786.06;;;6.67;93.74
23170;BME280;11753;43.144;24.714;2022-12-18T04:26:14;100784.84;;;6.73;93.77
23170;BME280;11753;43.144;24.714;2022-12-18T04:27:15;100782.56;;;6.81;93.49
23170;BME280;11753;43.144;24.714;2022-12-18T04:28:16;100781.47;;;6.71;93.12
23170;BME280;11753;43.144;24.714;2022-12-18T04:29:17;100780.75;;;6.69;92.83
23170;BME280;11753;43.144;24.714;2022-12-18T04:30:18;100789.53;;;6.68;93.31
23170;BME280;11753;43.144;24.714;2022-12-18T04:31:19;100786.69;;;6.71;93.53
23170;BME280;11753;43.144;24.714;2022-12-18T04:32:20;100786.53;;;6.74;93.48
23170;BME280;11753;43.144;24.714;2022-12-18T04:33:21;100791.34;;;6.80;93.60
23170;BME280;11753;43.144;24.714;2022-12-18T04:34:22;100787.56;;;6.84;93.62
23170;BME280;11753;43.144;24.714;2022-12-18T04:35:23;100795.03;;;6.90;93.67
23170;BME280;11753;43.144;24.714;2022-12-18T04:36:23;100788.56;;;6.96;93.41
23170;BME280;11753;43.144;24.714;2022-12-18T04:37:28;100792.63;;;7.00;93.78
23170;BME280;11753;43.144;24.714;2022-12-18T04:38:29;100796.63;;;7.05;93.11
23170;BME280;11753;43.144;24.714;2022-12-18T04:39:30;100794.78;;;7.07;93.05
23170;BME280;11753;43.144;24.714;2022-12-18T04:40:31;100791.00;;;7.11;92.78
23170;BME280;11753;43.144;24.714;2022-12-18T04:41:32;100790.16;;;7.11;92.99
23170;BME280;11753;43.144;24.714;2022-12-18T04:42:33;100797.72;;;7.15;92.53
23170;BME280;11753;43.144;24.714;2022-12-18T04:43:34;100794.16;;;7.16;92.41
23170;BME280;11753;43.144;24.714;2022-12-18T04:44:36;100797.19;;;7.23;92.26
23170;BME280;11753;43.144;24.714;2022-12-18T04:45:37;100794.47;;;7.25;92.18
23170;BME280;11753;43.144;24.714;2022-12-18T04:46:37;100789.13;;;7.26;92.04
23170;BME280;11753;43.144;24.714;2022-12-18T04:47:38;100800.44;;;7.27;91.62
23170;BME280;11753;43.144;24.714;2022-12-18T04:48:39;100795.84;;;7.30;91.77
23170;BME280;11753;43.144;24.714;2022-12-18T04:49:39;100798.75;;;7.26;91.63
23170;BME280;11753;43.144;24.714;2022-12-18T04:50:40;100802.03;;;7.29;91.43
23170;BME280;11753;43.144;24.714;2022-12-18T04:51:41;100798.56;;;7.29;91.29
23170;BME280;11753;43.144;24.714;2022-12-18T04:52:42;100799.72;;;7.25;91.11
23170;BME280;11753;43.144;24.714;2022-12-18T04:53:43;100800.25;;;7.30;91.24
23170;BME280;11753;43.144;24.714;2022-12-18T04:54:44;100808.72;;;7.33;91.19
23170;BME280;11753;43.144;24.714;2022-12-18T04:55:44;100801.38;;;7.26;90.52
23170;BME280;11753;43.144;24.714;2022-12-18T04:56:46;100812.59;;;7.28;90.55
23170;BME280;11753;43.144;24.714;2022-12-18T04:57:47;100809.66;;;7.32;90.65
23170;BME280;11753;43.144;24.714;2022-12-18T04:58:48;100803.19;;;7.38;90.72
23170;BME280;11753;43.144;24.714;2022-12-18T04:59:49;100807.16;;;7.43;90.83
23170;BME280;11753;43.144;24.714;2022-12-18T05:00:53;100816.28;;;7.38;91.00
23170;BME280;11753;43.144;24.714;2022-12-18T05:01:54;100812.94;;;7.36;90.86
23170;BME280;11753;43.144;24.714;2022-12-18T05:02:55;100817.22;;;7.37;90.99
23170;BME280;11753;43.144;24.714;2022-12-18T05:03:56;100819.31;;;7.44;90.97
23170;BME280;11753;43.144;24.714;2022-12-18T05:04:57;100818.06;;;7.50;90.84
23170;BME280;11753;43.144;24.714;2022-12-18T05:05:58;100826.44;;;7.55;90.65
23170;BME280;11753;43.144;24.714;2022-12-18T05:06:59;100823.94;;;7.54;90.65
23170;BME280;11753;43.144;24.714;2022-12-18T05:08:00;100833.56;;;7.53;90.42
23170;BME280;11753;43.144;24.714;2022-12-18T05:09:00;100827.28;;;7.56;90.31
23170;BME280;11753;43.144;24.714;2022-12-18T05:10:01;100832.94;;;7.62;90.11
23170;BME280;11753;43.144;24.714;2022-12-18T05:11:08;100822.47;;;7.62;89.76
23170;BME280;11753;43.144;24.714;2022-12-18T05:12:09;100836.91;;;7.55;87.98
23170;BME280;11753;43.144;24.714;2022-12-18T05:13:10;100834.53;;;7.52;88.13
23170;BME280;11753;43.144;24.714;2022-12-18T05:14:10;100836.72;;;7.58;87.99
23170;BME280;11753;43.144;24.714;2022-12-18T05:15:11;100837.69;;;7.57;88.03
23170;BME280;11753;43.144;24.714;2022-12-18T05:16:13;100841.75;;;7.61;87.43
23170;BME280;11753;43.144;24.714;2022-12-18T05:17:14;100841.03;;;7.59;87.77
23170;BME280;11753;43.144;24.714;2022-12-18T05:18:15;100839.88;;;7.51;86.82
23170;BME280;11753;43.144;24.714;2022-12-18T05:19:16;100840.28;;;7.57;86.78
23170;BME280;11753;43.144;24.714;2022-12-18T05:20:18;100839.88;;;7.51;86.73
23170;BME280;11753;43.144;24.714;2022-12-18T05:21:19;100828.22;;;7.42;87.51
23170;BME280;11753;43.144;24.714;2022-12-18T05:22:20;100844.91;;;7.54;87.29
23170;BME280;11753;43.144;24.714;2022-12-18T05:23:23;100837.13;;;7.52;87.48
23170;BME280;11753;43.144;24.714;2022-12-18T05:24:26;100837.34;;;7.49;87.35
23170;BME280;11753;43.144;24.714;2022-12-18T05:25:27;100841.31;;;7.55;87.19
23170;BME280;11753;43.144;24.714;2022-12-18T05:26:28;100839.34;;;7.58;87.18
23170;BME280;11753;43.144;24.714;2022-12-18T05:27:29;100848.88;;;7.47;87.00
23170;BME280;11753;43.144;24.714;2022-12-18T05:28:32;100846.38;;;7.45;87.22
23170;BME280;11753;43.144;24.714;2022-12-18T05:29:33;100837.44;;;7.48;87.17
23170;BME280;11753;43.144;24.714;2022-12-18T05:30:34;100853.06;;;7.49;87.46
23170;BME280;11753;43.144;24.714;2022-12-18T05:31:35;100852.31;;;7.47;87.39
23170;BME280;11753;43.144;24.714;2022-12-18T05:32:36;100857.28;;;7.64;86.14
23170;BME280;11753;43.144;24.714;2022-12-18T05:33:39;100852.88;;;7.52;86.86
23170;BME280;11753;43.144;24.714;2022-12-18T05:34:40;100861.56;;;7.53;86.76
23170;BME280;11753;43.144;24.714;2022-12-18T05:35:43;100857.47;;;7.49;86.87
23170;BME280;11753;43.144;24.714;2022-12-18T05:36:44;100856.44;;;7.51;87.22
23170;BME280;11753;43.144;24.714;2022-12-18T05:37:45;100859.88;;;7.52;87.38
23170;BME280;11753;43.144;24.714;2022-12-18T05:38:46;100859.88;;;7.52;87.36
23170;BME280;11753;43.144;24.714;2022-12-18T05:39:47;100868.38;;;7.55;87.42
23170;BME280;11753;43.144;24.714;2022-12-18T05:40:49;100870.03;;;7.56;87.37
23170;BME280;11753;43.144;24.714;2022-12-18T05:41:50;100870.69;;;7.60;87.21
23170;BME280;11753;43.144;24.714;2022-12-18T05:42:51;100876.13;;;7.57;87.17
23170;BME280;11753;43.144;24.714;2022-12-18T05:43:52;100882.22;;;7.57;86.96
23170;BME280;11753;43.144;24.714;2022-12-18T05:44:54;100864.38;;;7.62;86.86
23170;BME280;11753;43.144;24.714;2022-12-18T05:45:55;100867.78;;;7.64;86.85
23170;BME280;11753;43.144;24.714;2022-12-18T05:46:56;100869.44;;;7.65;86.24
23170;BME280;11753;43.144;24.714;2022-12-18T05:47:57;100869.63;;;7.62;86.39
23170;BME280;11753;43.144;24.714;2022-12-18T05:49:01;100864.09;;;7.67;86.29
23170;BME280;11753;43.144;24.714;2022-12-18T05:50:02;100860.31;;;7.58;85.98
23170;BME280;11753;43.144;24.714;2022-12-18T05:51:06;100867.00;;;7.62;86.08
23170;BME280;11753;43.144;24.714;2022-12-18T05:52:07;100873.19;;;7.61;86.08
23170;BME280;11753;43.144;24.714;2022-12-18T05:53:08;100867.78;;;7.64;85.87
23170;BME280;11753;43.144;24.714;2022-12-18T05:54:09;100870.28;;;7.66;86.04
23170;BME280;11753;43.144;24.714;2022-12-18T05:55:11;100864.38;;;7.62;85.98